Terminal Aerodrome Forecast
Issued by NWS

Home | Current Version | Previous Version | Text Only | Print | Product List | Glossary On
Versions: 1 2 3 4 5 6 7 8 9 10 11 12 13 14 15 16 17
000
FTUS45 KABQ 220534
TAFROW
TAF
KROW 220534Z 2206/2306 VRB06KT P6SM SCT100
     FM220800 30009KT P6SM VCSH BKN100
     FM221200 34008KT P6SM SCT100
     FM230100 02013G23KT P6SM VCSH SCT060 BKN100 PROB30 2301/2304
      02020G30KT 6SM -TSRA BKN060CB=

USA.gov is the U.S. government's official web portal to all federal, state and local government web resources and services.